• Join FlightAware (Why Join?)
  • Login
  • US Flag 
11:10AM EDT


 

Airport Tracker/Info


-or-


 

Live Flight TrackerFlight Track Log ✈ SWA2894 ✈ 21-Jun-2013 ✈ KOAK - KLAX

Flight Track Log - Related Links

Times and Time Zones

All times are in EDT time to prevent confusion due to time zone crossing. See the SWA2894 flight status page for this flight to view local times or setup timezone preferences in your user account.

Time Position Orientation Groundspeed Altitude Reporting Facility
EDT Latitude Longitude Course Direction KTS MPH feet Rate Location/Type
12:10PM 37.7500 -122.2833 150° Southeast 165 190 2,300  Level Northern Cal TRACON
12:11PM 37.7500 -122.3500 270° West 215 247 5,200 3,000 Climbing Northern Cal TRACON
12:12PM 37.7167 -122.4167 238° Southwest 247 284 8,300 2,340 Climbing Northern Cal TRACON
12:13PM 37.6667 -122.4667 218° Southwest 294 338 9,900 1,860 Climbing Northern Cal TRACON
12:14PM 37.5942 -122.4781 187° South 318 366 11,800 2,940 Climbing Oakland Center
12:15PM 37.3140 -122.3504 150° Southeast  Level FlightAware Approximate
12:15PM 37.5058 -122.4222 153° Southeast 364 419 15,400  Level Oakland Center
12:16PM 37.4317 -122.3194 132° Southeast 390 449 18,300 2,940 Climbing Oakland Center
12:17PM 37.3544 -122.2150 133° Southeast 406 467 21,500 2,640 Climbing Oakland Center
12:18PM 37.2728 -122.1058 133° Southeast 424 488 23,800 2,460 Climbing Oakland Center
12:19PM 37.1883 -121.9911 133° Southeast 445 512 26,600 2,580 Climbing Oakland Center
12:20PM 37.0853 -121.8542 133° Southeast 449 517 29,200 2,040 Climbing Oakland Center
12:21PM 36.9967 -121.7358 133° Southeast 462 532 30,900 1,680 Climbing Oakland Center
12:22PM 36.9050 -121.6150 133° Southeast 475 547 32,700 1,800 Climbing Oakland Center
12:23PM 36.8119 -121.4908 133° Southeast 480 552 34,600 1,680 Climbing Oakland Center
12:24PM 36.7208 -121.3681 133° Southeast 483 556 36,200 1,140 Climbing Oakland Center
12:25PM 36.6283 -121.2483 134° Southeast 480 552 37,000 360 Climbing Oakland Center
12:26PM 36.5364 -121.1283 134° Southeast 479 551 37,000  Level Oakland Center
12:27PM 36.4444 -121.0069 133° Southeast 481 554 37,000  Level Oakland Center
12:28PM 36.3519 -120.8867 134° Southeast 482 555 37,000  Level Oakland Center
12:29PM 36.2422 -120.7425 133° Southeast 481 554 37,000  Level Oakland Center
12:30PM 36.1500 -120.6219 133° Southeast 481 554 37,000  Level Oakland Center
12:31PM 36.0564 -120.5028 134° Southeast 482 555 37,000  Level Oakland Center
12:32PM 35.9642 -120.3822 133° Southeast 482 555 37,000  Level Oakland Center
12:33PM 35.8703 -120.2631 134° Southeast 481 554 37,000  Level Oakland Center
12:34PM 35.7767 -120.1431 134° Southeast 481 554 37,000  Level Oakland Center
12:35PM 35.6828 -120.0231 134° Southeast 483 556 37,000  Level Oakland Center
12:36PM 35.5792 -119.9194 141° Southeast 477 549 37,000  Level Oakland Center
12:37PM 35.4708 -119.8264 145° Southeast 472 543 37,000  Level Oakland Center
12:38PM 35.3625 -119.7322 145° Southeast 474 545 37,000 -420 Level Oakland Center
12:39PM 35.2314 -119.6200 145° Southeast 476 548 36,200 -1,560 Descending Oakland Center
12:40PM 35.1233 -119.5267 145° Southeast 474 545 33,900 -2,640 Descending Oakland Center
12:41PM 35.0175 -119.4381 146° Southeast 464 534 30,900 -2,700 Descending Oakland Center
12:42PM 34.9119 -119.3481 145° Southeast 464 534 28,400 -2,400 Descending Oakland Center
12:43PM 34.8106 -119.2611 145° Southeast 453 521 26,100 -2,160 Descending Oakland Center
12:44PM 34.7136 -119.1789 145° Southeast 434 499 24,000 -2,040 Descending Oakland Center
12:46PM 34.5939 -119.0817 146° Southeast 421 484 21,500 -2,040 Descending Los Angeles Center
12:47PM 34.5039 -119.0058 145° Southeast 392 451 19,400 -2,040 Descending Los Angeles Center
12:48PM 34.4150 -118.9317 145° Southeast 387 445 17,400 -2,220 Descending Los Angeles Center
12:49PM 34.3067 -118.8622 152° Southeast 369 425 14,900 -2,220 Descending Los Angeles Center
12:50PM 34.2111 -118.8286 164° South 358 412 12,900 -1,800 Descending Los Angeles Center
12:51PM 34.1183 -118.7950 163° South 347 399 11,200 -1,440 Descending Los Angeles Center
12:52PM 34.0586 -118.7086 130° Southeast 324 373 10,000 -900 Descending Los Angeles Center
12:53PM 34.0392 -118.6072 103° East 313 360 9,400 -1,020 Descending Los Angeles Center
12:54PM 34.0186 -118.5011 103° East 303 349 7,900 -1,500 Descending Los Angeles Center
12:55PM 34.0147 -118.4050 93° East 287 330 6,400 -1,380 Descending Los Angeles Center
12:56PM 34.0222 -118.3106 85° East 282 325 5,100 -840 Descending Los Angeles Center
12:57PM 34.0264 -118.2364 86° East 232 267 4,700 -900 Descending Los Angeles Center
12:58PM 33.9811 -118.2417 186° South 203 234 3,300 -1,440 Descending Los Angeles Center
12:59PM 33.9617 -118.2972 247° West 190 219 1,800 -1,200 Descending Los Angeles Center
01:00PM 33.9578 -118.3564 265° West 163 188 900 -780 Descending Los Angeles Center
01:01PM 33.9533 -118.4028 263° West 148 170 200 -720 Descending Los Angeles Center
01:03PM 33.9425 -118.4081 228° Southwest  Level Estimated
01:10PM 33.9425 -118.4081 228° Southwest  Level Estimated